createdAt,value
2023-04-04T00:03:09.330Z,15.9
2023-04-04T00:09:15.019Z,15.9
2023-04-04T00:15:20.803Z,15.9
2023-04-04T00:21:26.962Z,15.9
2023-04-04T00:27:32.554Z,15.9
2023-04-04T00:33:37.839Z,15.9
2023-04-04T00:39:42.863Z,15.9
2023-04-04T00:45:48.347Z,15.8
2023-04-04T00:51:54.199Z,15.8
2023-04-04T00:58:00.795Z,15.8
2023-04-04T01:04:06.242Z,15.8
2023-04-04T01:10:12.349Z,15.8
2023-04-04T01:16:18.549Z,15.8
2023-04-04T01:22:24.113Z,15.8
2023-04-04T01:28:29.274Z,15.8
2023-04-04T01:34:35.097Z,15.8
2023-04-04T01:40:40.560Z,15.8
2023-04-04T01:46:46.784Z,15.8
2023-04-04T01:52:53.200Z,15.7
2023-04-04T01:58:58.569Z,15.7
2023-04-04T02:05:04.116Z,15.7
2023-04-04T02:11:09.503Z,15.7
2023-04-04T02:17:15.072Z,15.7
2023-04-04T02:23:20.852Z,15.7
2023-04-04T02:29:26.651Z,15.7
2023-04-04T02:35:32.197Z,15.7
2023-04-04T02:41:38.215Z,15.7
2023-04-04T02:47:43.839Z,15.7
2023-04-04T02:53:49.714Z,15.7
2023-04-04T02:59:55.287Z,15.7
2023-04-04T03:06:01.541Z,15.7
2023-04-04T03:12:06.920Z,15.7
2023-04-04T03:18:12.233Z,15.7
2023-04-04T03:24:18.042Z,15.7
2023-04-04T03:30:23.378Z,15.7
2023-04-04T03:36:28.945Z,15.7
2023-04-04T03:42:34.593Z,15.7
2023-04-04T03:48:40.306Z,15.7
2023-04-04T03:54:45.884Z,15.7
2023-04-04T04:00:50.760Z,15.6
2023-04-04T04:06:56.196Z,15.6
2023-04-04T04:13:01.861Z,15.6
2023-04-04T04:19:07.640Z,15.6
2023-04-04T04:25:13.829Z,15.6
2023-04-04T04:31:19.813Z,15.6
2023-04-04T04:37:25.612Z,15.6
2023-04-04T04:43:31.158Z,15.6
2023-04-04T04:49:36.931Z,15.6
2023-04-04T04:55:42.977Z,15.6
2023-04-04T05:01:48.568Z,15.6
2023-04-04T05:07:54.381Z,15.7
2023-04-04T05:14:00.470Z,15.7
2023-04-04T05:20:06.052Z,15.7
2023-04-04T05:26:11.808Z,15.7
2023-04-04T05:32:17.591Z,15.7
2023-04-04T05:38:22.750Z,15.7
2023-04-04T05:44:28.717Z,15.7
2023-04-04T05:50:34.523Z,15.7
2023-04-04T05:56:40.695Z,15.8
2023-04-04T06:02:46.330Z,16
2023-04-04T06:08:53.709Z,16.7
2023-04-04T06:14:59.259Z,15.9
2023-04-04T06:21:04.820Z,16.1
2023-04-04T06:27:10.872Z,16.7
2023-04-04T06:33:16.997Z,16.3
2023-04-04T06:39:22.368Z,16.1
2023-04-04T06:45:28.124Z,15.9
2023-04-04T06:51:32.770Z,15.8
2023-04-04T06:57:38.495Z,15.8
2023-04-04T07:03:44.076Z,15.8
2023-04-04T07:09:49.409Z,15.8
2023-04-04T07:15:55.254Z,15.8
2023-04-04T07:22:00.965Z,15.8
2023-04-04T07:28:12.590Z,15.8
2023-04-04T07:34:19.115Z,15.8
2023-04-04T07:40:25.248Z,15.8
2023-04-04T07:46:31.077Z,15.8
2023-04-04T07:52:37.464Z,15.8
2023-04-04T07:58:43.201Z,15.8
2023-04-04T08:04:49.033Z,15.8
2023-04-04T08:10:55.036Z,15.8
2023-04-04T08:17:00.992Z,15.8
2023-04-04T08:23:06.704Z,15.8
2023-04-04T08:29:11.944Z,15.8
2023-04-04T08:35:18.087Z,15.8
2023-04-04T08:41:23.436Z,15.8
2023-04-04T08:47:28.813Z,15.8
2023-04-04T08:53:34.799Z,15.8
2023-04-04T08:59:40.310Z,15.8
2023-04-04T09:05:46.748Z,15.8
2023-04-04T09:11:52.950Z,15.8
2023-04-04T09:17:58.544Z,15.8
2023-04-04T09:24:03.880Z,15.8
2023-04-04T09:30:09.850Z,15.8
2023-04-04T09:36:17.834Z,15.8
2023-04-04T09:42:25.155Z,15.8
2023-04-04T09:48:31.102Z,15.8
2023-04-04T09:54:45.538Z,15.8
2023-04-04T10:00:53.303Z,15.8
2023-04-04T10:06:58.726Z,15.7
2023-04-04T10:13:04.634Z,15.8
2023-04-04T10:19:10.060Z,15.7
2023-04-04T10:25:15.840Z,15.7
2023-04-04T10:31:22.223Z,15.7
2023-04-04T10:37:27.945Z,15.7
2023-04-04T10:43:33.535Z,15.7
2023-04-04T10:49:39.304Z,15.7
2023-04-04T10:55:44.256Z,15.7
2023-04-04T11:01:50.029Z,15.7
2023-04-04T11:08:07.297Z,15.7
2023-04-04T11:14:14.309Z,15.7
2023-04-04T11:20:20.151Z,15.7
2023-04-04T11:26:25.893Z,15.7
2023-04-04T11:32:32.105Z,15.7
2023-04-04T11:38:37.664Z,15.7
2023-04-04T11:44:43.286Z,15.7
2023-04-04T11:50:49.428Z,15.7
2023-04-04T11:56:54.998Z,15.7
2023-04-04T12:03:00.466Z,15.7
2023-04-04T12:09:06.132Z,15.7
2023-04-04T12:15:17.187Z,15.7
2023-04-04T12:21:22.419Z,15.7
2023-04-04T12:27:27.959Z,15.6
2023-04-04T12:33:33.899Z,15.7
2023-04-04T12:39:39.723Z,15.6
2023-04-04T12:45:45.315Z,15.6
2023-04-04T12:51:50.847Z,15.6
2023-04-04T12:57:56.203Z,15.6
2023-04-04T13:04:02.140Z,15.6
2023-04-04T13:10:07.628Z,15.6
2023-04-04T13:16:12.995Z,15.6
2023-04-04T13:22:18.722Z,15.6
2023-04-04T13:28:24.244Z,15.6
2023-04-04T13:34:29.675Z,15.6
2023-04-04T13:40:35.590Z,15.6
2023-04-04T13:46:41.796Z,15.6
2023-04-04T13:52:47.192Z,15.6
2023-04-04T13:58:52.682Z,15.6
2023-04-04T14:04:58.785Z,15.6
2023-04-04T14:11:04.010Z,15.6
2023-04-04T14:17:09.502Z,15.6
2023-04-04T14:23:15.014Z,15.6
2023-04-04T14:29:20.648Z,15.6
2023-04-04T14:35:26.217Z,15.7
2023-04-04T14:41:32.745Z,15.7
2023-04-04T14:47:38.967Z,15.6
2023-04-04T14:53:44.730Z,15.6
2023-04-04T14:59:49.946Z,15.6
2023-04-04T15:05:55.761Z,15.7
2023-04-04T15:12:02.263Z,15.7
2023-04-04T15:18:08.077Z,15.7
2023-04-04T15:24:13.406Z,15.7
2023-04-04T15:30:19.383Z,15.7
2023-04-04T15:36:24.358Z,15.7
2023-04-04T15:42:30.315Z,15.8
2023-04-04T15:48:36.563Z,15.8
2023-04-04T15:54:42.497Z,15.8
2023-04-04T16:00:47.884Z,15.8
2023-04-04T16:06:53.646Z,15.8
2023-04-04T16:12:59.626Z,15.8
2023-04-04T16:19:04.788Z,15.8
2023-04-04T16:25:09.949Z,15.8
2023-04-04T16:31:15.954Z,15.8
2023-04-04T16:37:21.917Z,15.8
2023-04-04T16:43:27.159Z,15.8
2023-04-04T16:49:32.880Z,15.8
2023-04-04T16:55:38.430Z,15.8
2023-04-04T17:01:43.594Z,15.8
2023-04-04T17:07:48.961Z,15.8
2023-04-04T17:13:54.525Z,15.8
2023-04-04T17:20:00.189Z,15.8
2023-04-04T17:26:06.487Z,15.8
2023-04-04T17:32:12.378Z,15.8
2023-04-04T17:38:18.518Z,15.8
2023-04-04T17:44:24.079Z,15.8
2023-04-04T17:50:29.460Z,15.8
2023-04-04T17:56:35.231Z,15.8
2023-04-04T18:02:40.789Z,15.8
2023-04-04T18:08:46.931Z,15.8
2023-04-04T18:14:52.518Z,15.8
2023-04-04T18:20:58.286Z,15.8
2023-04-04T18:27:03.922Z,15.8
2023-04-04T18:33:09.343Z,15.8
2023-04-04T18:39:15.206Z,15.8
2023-04-04T18:45:22.860Z,15.8
2023-04-04T18:51:43.962Z,15.8
2023-04-04T18:57:49.527Z,15.8
2023-04-04T19:03:55.146Z,15.8
2023-04-04T19:10:00.738Z,15.7
2023-04-04T19:16:06.761Z,15.7
2023-04-04T19:22:13.068Z,15.8
2023-04-04T19:28:18.638Z,15.7
2023-04-04T19:34:25.024Z,15.7
2023-04-04T19:40:30.802Z,15.7
2023-04-04T19:46:36.588Z,15.7
2023-04-04T19:52:42.360Z,15.7
2023-04-04T19:58:48.479Z,15.7
2023-04-04T20:04:53.739Z,15.7
2023-04-04T20:10:59.552Z,15.7
2023-04-04T20:17:05.240Z,15.7
2023-04-04T20:23:11.092Z,15.7
2023-04-04T20:29:17.079Z,15.7
2023-04-04T20:35:23.076Z,15.7
2023-04-04T20:41:28.828Z,15.7
2023-04-04T20:47:34.591Z,15.7
2023-04-04T20:53:41.168Z,15.7
2023-04-04T20:59:46.733Z,15.7
2023-04-04T21:05:52.316Z,15.7
2023-04-04T21:11:57.871Z,15.7
2023-04-04T21:18:03.062Z,15.7
2023-04-04T21:24:09.032Z,15.7
2023-04-04T21:30:14.980Z,15.7
2023-04-04T21:36:20.604Z,15.6
2023-04-04T21:42:26.358Z,15.6
2023-04-04T21:48:31.919Z,15.6
2023-04-04T21:54:37.502Z,15.6
2023-04-04T22:00:43.338Z,15.6
2023-04-04T22:06:49.255Z,15.6
2023-04-04T22:12:54.643Z,15.6
2023-04-04T22:19:00.197Z,15.6
2023-04-04T22:25:05.964Z,15.6
2023-04-04T22:31:11.744Z,15.5
2023-04-04T22:37:17.933Z,15.5
2023-04-04T22:43:23.162Z,15.5
2023-04-04T22:49:28.883Z,15.5
2023-04-04T22:55:34.684Z,15.5
2023-04-04T23:01:40.555Z,15.5
2023-04-04T23:07:46.625Z,15.5
2023-04-04T23:13:52.395Z,15.5
2023-04-04T23:19:58.380Z,15.4
2023-04-04T23:26:03.944Z,15.4
2023-04-04T23:32:09.320Z,15.4
2023-04-04T23:38:15.092Z,15.4
2023-04-04T23:44:20.261Z,15.4
2023-04-04T23:50:26.242Z,15.4
2023-04-04T23:56:31.604Z,15.4
